sensor_id;sensor_type;location;lat;lon;timestamp;P1;durP1;ratioP1;P2;durP2;ratioP2
1376;SDS011;682;52.502;13.488;2023-10-31T00:00:43;6.77;;;6.03;;
1376;SDS011;682;52.502;13.488;2023-10-31T00:03:10;8.00;;;6.87;;
1376;SDS011;682;52.502;13.488;2023-10-31T00:05:38;6.60;;;6.00;;
1376;SDS011;682;52.502;13.488;2023-10-31T00:08:05;7.23;;;6.23;;
1376;SDS011;682;52.502;13.488;2023-10-31T00:10:32;7.43;;;5.63;;
1376;SDS011;682;52.502;13.488;2023-10-31T00:12:59;7.17;;;6.47;;
1376;SDS011;682;52.502;13.488;2023-10-31T00:15:26;10.33;;;6.60;;
1376;SDS011;682;52.502;13.488;2023-10-31T00:17:55;7.57;;;6.80;;
1376;SDS011;682;52.502;13.488;2023-10-31T00:20:22;6.63;;;6.03;;
1376;SDS011;682;52.502;13.488;2023-10-31T00:22:50;9.57;;;6.70;;
1376;SDS011;682;52.502;13.488;2023-10-31T00:25:17;9.43;;;6.20;;
1376;SDS011;682;52.502;13.488;2023-10-31T00:27:44;7.30;;;6.63;;
1376;SDS011;682;52.502;13.488;2023-10-31T00:30:12;11.20;;;7.20;;
1376;SDS011;682;52.502;13.488;2023-10-31T00:32:39;6.57;;;5.93;;
1376;SDS011;682;52.502;13.488;2023-10-31T00:35:06;6.43;;;5.90;;
1376;SDS011;682;52.502;13.488;2023-10-31T00:37:33;6.63;;;6.13;;
1376;SDS011;682;52.502;13.488;2023-10-31T00:40:02;7.57;;;6.80;;
1376;SDS011;682;52.502;13.488;2023-10-31T00:42:29;7.10;;;6.40;;
1376;SDS011;682;52.502;13.488;2023-10-31T00:44:56;8.20;;;6.83;;
1376;SDS011;682;52.502;13.488;2023-10-31T00:47:23;7.33;;;6.63;;
1376;SDS011;682;52.502;13.488;2023-10-31T00:49:49;7.27;;;6.50;;
1376;SDS011;682;52.502;13.488;2023-10-31T00:52:18;7.43;;;5.80;;
1376;SDS011;682;52.502;13.488;2023-10-31T00:54:45;6.50;;;5.80;;
1376;SDS011;682;52.502;13.488;2023-10-31T00:57:13;7.63;;;6.33;;
1376;SDS011;682;52.502;13.488;2023-10-31T00:59:40;7.40;;;6.57;;
1376;SDS011;682;52.502;13.488;2023-10-31T01:02:07;6.20;;;5.70;;
1376;SDS011;682;52.502;13.488;2023-10-31T01:04:35;9.83;;;6.67;;
1376;SDS011;682;52.502;13.488;2023-10-31T01:07:02;6.57;;;5.90;;
1376;SDS011;682;52.502;13.488;2023-10-31T01:09:29;6.63;;;6.00;;
1376;SDS011;682;52.502;13.488;2023-10-31T01:11:56;7.00;;;6.30;;
1376;SDS011;682;52.502;13.488;2023-10-31T01:14:24;8.93;;;7.10;;
1376;SDS011;682;52.502;13.488;2023-10-31T01:16:51;7.03;;;6.33;;
1376;SDS011;682;52.502;13.488;2023-10-31T01:19:18;9.90;;;8.80;;
1376;SDS011;682;52.502;13.488;2023-10-31T01:21:45;10.13;;;8.97;;
1376;SDS011;682;52.502;13.488;2023-10-31T01:24:12;7.33;;;6.47;;
1376;SDS011;682;52.502;13.488;2023-10-31T01:26:39;10.43;;;6.53;;
1376;SDS011;682;52.502;13.488;2023-10-31T01:29:06;9.20;;;6.73;;
1376;SDS011;682;52.502;13.488;2023-10-31T01:31:34;7.67;;;6.60;;
1376;SDS011;682;52.502;13.488;2023-10-31T01:34:02;6.93;;;6.27;;
1376;SDS011;682;52.502;13.488;2023-10-31T01:36:29;8.70;;;7.00;;
1376;SDS011;682;52.502;13.488;2023-10-31T01:38:56;6.70;;;6.10;;
1376;SDS011;682;52.502;13.488;2023-10-31T01:41:24;8.03;;;7.27;;
1376;SDS011;682;52.502;13.488;2023-10-31T01:43:51;10.10;;;6.67;;
1376;SDS011;682;52.502;13.488;2023-10-31T01:46:17;8.33;;;7.47;;
1376;SDS011;682;52.502;13.488;2023-10-31T01:48:46;9.20;;;7.10;;
1376;SDS011;682;52.502;13.488;2023-10-31T01:51:13;7.10;;;6.50;;
1376;SDS011;682;52.502;13.488;2023-10-31T01:53:40;7.27;;;6.47;;
1376;SDS011;682;52.502;13.488;2023-10-31T01:56:07;8.70;;;7.03;;
1376;SDS011;682;52.502;13.488;2023-10-31T01:58:35;9.00;;;7.23;;
1376;SDS011;682;52.502;13.488;2023-10-31T02:01:03;10.13;;;8.00;;
1376;SDS011;682;52.502;13.488;2023-10-31T02:03:31;7.27;;;6.57;;
1376;SDS011;682;52.502;13.488;2023-10-31T02:06:00;7.70;;;7.00;;
1376;SDS011;682;52.502;13.488;2023-10-31T02:08:27;7.80;;;7.00;;
1376;SDS011;682;52.502;13.488;2023-10-31T02:10:54;8.40;;;6.43;;
1376;SDS011;682;52.502;13.488;2023-10-31T02:13:21;7.30;;;6.70;;
1376;SDS011;682;52.502;13.488;2023-10-31T02:15:48;9.67;;;7.83;;
1376;SDS011;682;52.502;13.488;2023-10-31T02:18:15;7.67;;;6.97;;
1376;SDS011;682;52.502;13.488;2023-10-31T02:20:42;8.40;;;7.20;;
1376;SDS011;682;52.502;13.488;2023-10-31T02:23:11;10.70;;;7.20;;
1376;SDS011;682;52.502;13.488;2023-10-31T02:25:38;8.13;;;7.43;;
1376;SDS011;682;52.502;13.488;2023-10-31T02:28:04;7.67;;;7.07;;
1376;SDS011;682;52.502;13.488;2023-10-31T02:30:31;7.67;;;6.90;;
1376;SDS011;682;52.502;13.488;2023-10-31T02:33:00;8.70;;;6.87;;
1376;SDS011;682;52.502;13.488;2023-10-31T02:35:27;6.87;;;6.17;;
1376;SDS011;682;52.502;13.488;2023-10-31T02:37:54;8.83;;;8.00;;
1376;SDS011;682;52.502;13.488;2023-10-31T02:40:23;7.67;;;7.07;;
1376;SDS011;682;52.502;13.488;2023-10-31T02:42:50;9.30;;;7.83;;
1376;SDS011;682;52.502;13.488;2023-10-31T02:45:17;8.27;;;7.47;;
1376;SDS011;682;52.502;13.488;2023-10-31T02:47:43;8.23;;;7.43;;
1376;SDS011;682;52.502;13.488;2023-10-31T02:50:11;8.57;;;7.73;;
1376;SDS011;682;52.502;13.488;2023-10-31T02:52:37;9.27;;;8.40;;
1376;SDS011;682;52.502;13.488;2023-10-31T02:55:05;7.43;;;6.73;;
1376;SDS011;682;52.502;13.488;2023-10-31T02:57:33;9.40;;;7.83;;
1376;SDS011;682;52.502;13.488;2023-10-31T03:00:00;8.33;;;7.50;;
1376;SDS011;682;52.502;13.488;2023-10-31T03:02:27;10.67;;;7.83;;
1376;SDS011;682;52.502;13.488;2023-10-31T03:04:55;10.73;;;7.40;;
1376;SDS011;682;52.502;13.488;2023-10-31T03:07:21;11.60;;;7.90;;
1376;SDS011;682;52.502;13.488;2023-10-31T03:09:48;9.40;;;8.47;;
1376;SDS011;682;52.502;13.488;2023-10-31T03:12:15;8.57;;;7.73;;
1376;SDS011;682;52.502;13.488;2023-10-31T03:14:43;8.77;;;7.87;;
1376;SDS011;682;52.502;13.488;2023-10-31T03:17:10;9.50;;;8.40;;
1376;SDS011;682;52.502;13.488;2023-10-31T03:19:37;8.50;;;7.70;;
1376;SDS011;682;52.502;13.488;2023-10-31T03:22:04;10.37;;;8.20;;
1376;SDS011;682;52.502;13.488;2023-10-31T03:24:31;7.63;;;6.90;;
1376;SDS011;682;52.502;13.488;2023-10-31T03:26:58;10.33;;;7.73;;
1376;SDS011;682;52.502;13.488;2023-10-31T03:29:25;9.23;;;8.23;;
1376;SDS011;682;52.502;13.488;2023-10-31T03:31:53;8.47;;;7.63;;
1376;SDS011;682;52.502;13.488;2023-10-31T03:34:20;8.53;;;7.67;;
1376;SDS011;682;52.502;13.488;2023-10-31T03:36:47;8.23;;;7.43;;
1376;SDS011;682;52.502;13.488;2023-10-31T03:39:14;9.57;;;8.60;;
1376;SDS011;682;52.502;13.488;2023-10-31T03:41:40;9.10;;;8.30;;
1376;SDS011;682;52.502;13.488;2023-10-31T03:44:08;8.67;;;7.80;;
1376;SDS011;682;52.502;13.488;2023-10-31T03:46:34;10.30;;;9.40;;
1376;SDS011;682;52.502;13.488;2023-10-31T03:49:03;9.57;;;8.17;;
1376;SDS011;682;52.502;13.488;2023-10-31T03:51:32;9.53;;;8.63;;
1376;SDS011;682;52.502;13.488;2023-10-31T03:53:59;11.03;;;9.93;;
1376;SDS011;682;52.502;13.488;2023-10-31T03:56:26;11.20;;;8.83;;
1376;SDS011;682;52.502;13.488;2023-10-31T03:58:53;11.30;;;10.20;;
1376;SDS011;682;52.502;13.488;2023-10-31T04:01:20;13.23;;;10.23;;
1376;SDS011;682;52.502;13.488;2023-10-31T04:03:47;10.43;;;9.53;;
1376;SDS011;682;52.502;13.488;2023-10-31T04:06:15;12.00;;;10.00;;
1376;SDS011;682;52.502;13.488;2023-10-31T04:08:42;12.27;;;9.70;;
1376;SDS011;682;52.502;13.488;2023-10-31T04:11:09;11.37;;;10.33;;
1376;SDS011;682;52.502;13.488;2023-10-31T04:13:36;12.30;;;11.10;;
1376;SDS011;682;52.502;13.488;2023-10-31T04:16:03;12.73;;;11.53;;
1376;SDS011;682;52.502;13.488;2023-10-31T04:18:30;12.23;;;11.03;;
1376;SDS011;682;52.502;13.488;2023-10-31T04:20:57;12.40;;;11.33;;
1376;SDS011;682;52.502;13.488;2023-10-31T04:23:25;13.73;;;12.10;;
1376;SDS011;682;52.502;13.488;2023-10-31T04:25:52;12.50;;;11.30;;
1376;SDS011;682;52.502;13.488;2023-10-31T04:28:19;12.40;;;11.27;;
1376;SDS011;682;52.502;13.488;2023-10-31T04:30:46;11.80;;;10.60;;
1376;SDS011;682;52.502;13.488;2023-10-31T04:33:13;12.50;;;10.87;;
1376;SDS011;682;52.502;13.488;2023-10-31T04:35:40;11.17;;;10.03;;
1376;SDS011;682;52.502;13.488;2023-10-31T04:38:06;10.70;;;9.70;;
1376;SDS011;682;52.502;13.488;2023-10-31T04:40:35;10.47;;;9.37;;
1376;SDS011;682;52.502;13.488;2023-10-31T04:43:02;11.40;;;10.20;;
1376;SDS011;682;52.502;13.488;2023-10-31T04:45:28;11.90;;;10.80;;
1376;SDS011;682;52.502;13.488;2023-10-31T04:47:55;10.60;;;9.57;;
1376;SDS011;682;52.502;13.488;2023-10-31T04:50:22;12.03;;;10.83;;
1376;SDS011;682;52.502;13.488;2023-10-31T04:52:49;13.80;;;12.50;;
1376;SDS011;682;52.502;13.488;2023-10-31T04:55:16;11.40;;;10.20;;
1376;SDS011;682;52.502;13.488;2023-10-31T04:57:44;13.70;;;12.30;;
1376;SDS011;682;52.502;13.488;2023-10-31T05:00:12;13.30;;;11.60;;
1376;SDS011;682;52.502;13.488;2023-10-31T05:02:39;14.23;;;12.93;;
1376;SDS011;682;52.502;13.488;2023-10-31T05:05:06;11.73;;;10.60;;
1376;SDS011;682;52.502;13.488;2023-10-31T05:07:33;11.87;;;10.77;;
1376;SDS011;682;52.502;13.488;2023-10-31T05:10:00;11.67;;;10.57;;
1376;SDS011;682;52.502;13.488;2023-10-31T05:12:27;12.80;;;11.17;;
1376;SDS011;682;52.502;13.488;2023-10-31T05:14:55;14.10;;;10.97;;
1376;SDS011;682;52.502;13.488;2023-10-31T05:17:22;12.23;;;11.10;;
1376;SDS011;682;52.502;13.488;2023-10-31T05:19:49;13.03;;;11.83;;
1376;SDS011;682;52.502;13.488;2023-10-31T05:22:16;13.80;;;12.53;;
1376;SDS011;682;52.502;13.488;2023-10-31T05:24:43;11.63;;;10.50;;
1376;SDS011;682;52.502;13.488;2023-10-31T05:27:10;12.90;;;11.70;;
1376;SDS011;682;52.502;13.488;2023-10-31T05:29:38;13.53;;;10.83;;
1376;SDS011;682;52.502;13.488;2023-10-31T05:32:07;12.90;;;11.70;;
1376;SDS011;682;52.502;13.488;2023-10-31T05:34:34;14.13;;;11.30;;
1376;SDS011;682;52.502;13.488;2023-10-31T05:37:01;13.50;;;12.23;;
1376;SDS011;682;52.502;13.488;2023-10-31T05:39:31;13.77;;;12.47;;
1376;SDS011;682;52.502;13.488;2023-10-31T05:41:57;14.60;;;13.20;;
1376;SDS011;682;52.502;13.488;2023-10-31T05:44:24;13.27;;;11.77;;
1376;SDS011;682;52.502;13.488;2023-10-31T05:46:51;14.00;;;12.50;;
1376;SDS011;682;52.502;13.488;2023-10-31T05:49:20;13.70;;;12.40;;
1376;SDS011;682;52.502;13.488;2023-10-31T05:51:49;13.53;;;12.03;;
1376;SDS011;682;52.502;13.488;2023-10-31T05:54:16;13.43;;;12.13;;
1376;SDS011;682;52.502;13.488;2023-10-31T05:56:43;13.17;;;11.87;;
1376;SDS011;682;52.502;13.488;2023-10-31T05:59:11;12.10;;;11.00;;
1376;SDS011;682;52.502;13.488;2023-10-31T06:01:38;11.37;;;10.27;;
1376;SDS011;682;52.502;13.488;2023-10-31T06:04:05;11.30;;;10.10;;
1376;SDS011;682;52.502;13.488;2023-10-31T06:06:36;10.80;;;9.80;;
1376;SDS011;682;52.502;13.488;2023-10-31T06:09:04;11.77;;;10.10;;
1376;SDS011;682;52.502;13.488;2023-10-31T06:11:31;8.83;;;8.13;;
1376;SDS011;682;52.502;13.488;2023-10-31T06:13:58;11.50;;;10.40;;
1376;SDS011;682;52.502;13.488;2023-10-31T06:16:25;10.30;;;9.30;;
1376;SDS011;682;52.502;13.488;2023-10-31T06:18:52;12.53;;;11.13;;
1376;SDS011;682;52.502;13.488;2023-10-31T06:21:19;10.77;;;9.77;;
1376;SDS011;682;52.502;13.488;2023-10-31T06:23:47;10.67;;;9.67;;
1376;SDS011;682;52.502;13.488;2023-10-31T06:26:15;10.30;;;9.23;;
1376;SDS011;682;52.502;13.488;2023-10-31T06:28:42;10.03;;;9.13;;
1376;SDS011;682;52.502;13.488;2023-10-31T06:31:09;9.63;;;8.60;;
1376;SDS011;682;52.502;13.488;2023-10-31T06:33:36;10.33;;;9.33;;
1376;SDS011;682;52.502;13.488;2023-10-31T06:36:03;8.67;;;7.90;;
1376;SDS011;682;52.502;13.488;2023-10-31T06:38:31;8.50;;;7.70;;
1376;SDS011;682;52.502;13.488;2023-10-31T06:40:59;9.50;;;8.60;;
1376;SDS011;682;52.502;13.488;2023-10-31T06:43:26;9.67;;;8.87;;
1376;SDS011;682;52.502;13.488;2023-10-31T06:45:54;9.13;;;8.23;;
1376;SDS011;682;52.502;13.488;2023-10-31T06:48:22;9.27;;;8.47;;
1376;SDS011;682;52.502;13.488;2023-10-31T06:50:48;8.67;;;7.80;;
1376;SDS011;682;52.502;13.488;2023-10-31T06:53:15;8.67;;;7.60;;
1376;SDS011;682;52.502;13.488;2023-10-31T06:55:42;7.57;;;6.97;;
1376;SDS011;682;52.502;13.488;2023-10-31T06:58:11;7.80;;;7.10;;
1376;SDS011;682;52.502;13.488;2023-10-31T07:00:37;8.57;;;7.87;;
1376;SDS011;682;52.502;13.488;2023-10-31T07:03:04;8.20;;;7.17;;
1376;SDS011;682;52.502;13.488;2023-10-31T07:05:34;7.63;;;6.77;;
1376;SDS011;682;52.502;13.488;2023-10-31T07:08:01;7.60;;;6.90;;
1376;SDS011;682;52.502;13.488;2023-10-31T07:10:29;7.20;;;6.53;;
1376;SDS011;682;52.502;13.488;2023-10-31T07:12:56;7.73;;;7.13;;
1376;SDS011;682;52.502;13.488;2023-10-31T07:15:25;6.40;;;5.90;;
1376;SDS011;682;52.502;13.488;2023-10-31T07:17:53;7.47;;;6.57;;
1376;SDS011;682;52.502;13.488;2023-10-31T07:20:20;6.20;;;5.70;;
1376;SDS011;682;52.502;13.488;2023-10-31T07:22:47;5.67;;;5.10;;
1376;SDS011;682;52.502;13.488;2023-10-31T07:25:14;6.20;;;5.60;;
1376;SDS011;682;52.502;13.488;2023-10-31T07:27:41;6.00;;;5.07;;
1376;SDS011;682;52.502;13.488;2023-10-31T07:30:08;6.10;;;5.60;;
1376;SDS011;682;52.502;13.488;2023-10-31T07:32:37;9.17;;;6.30;;
1376;SDS011;682;52.502;13.488;2023-10-31T07:35:04;10.87;;;9.60;;
1376;SDS011;682;52.502;13.488;2023-10-31T07:37:32;5.37;;;4.97;;
1376;SDS011;682;52.502;13.488;2023-10-31T07:39:59;7.10;;;5.30;;
1376;SDS011;682;52.502;13.488;2023-10-31T07:42:26;4.00;;;3.50;;
1376;SDS011;682;52.502;13.488;2023-10-31T07:44:53;3.40;;;3.10;;
1376;SDS011;682;52.502;13.488;2023-10-31T07:47:20;3.50;;;3.20;;
1376;SDS011;682;52.502;13.488;2023-10-31T07:49:50;3.27;;;3.07;;
1376;SDS011;682;52.502;13.488;2023-10-31T07:52:18;3.67;;;3.37;;
1376;SDS011;682;52.502;13.488;2023-10-31T07:54:45;3.63;;;3.10;;
1376;SDS011;682;52.502;13.488;2023-10-31T07:57:12;3.80;;;3.33;;
1376;SDS011;682;52.502;13.488;2023-10-31T07:59:39;4.03;;;3.07;;
1376;SDS011;682;52.502;13.488;2023-10-31T08:02:06;3.20;;;2.90;;
1376;SDS011;682;52.502;13.488;2023-10-31T08:04:33;4.37;;;2.90;;
1376;SDS011;682;52.502;13.488;2023-10-31T08:07:04;2.47;;;2.27;;
1376;SDS011;682;52.502;13.488;2023-10-31T08:09:31;2.47;;;2.17;;
1376;SDS011;682;52.502;13.488;2023-10-31T08:11:58;2.20;;;2.00;;
1376;SDS011;682;52.502;13.488;2023-10-31T08:14:25;2.43;;;2.23;;
1376;SDS011;682;52.502;13.488;2023-10-31T08:16:52;2.17;;;2.03;;
1376;SDS011;682;52.502;13.488;2023-10-31T08:19:19;3.20;;;2.20;;
1376;SDS011;682;52.502;13.488;2023-10-31T08:21:46;2.27;;;2.07;;
1376;SDS011;682;52.502;13.488;2023-10-31T08:24:14;2.53;;;1.80;;
1376;SDS011;682;52.502;13.488;2023-10-31T08:26:41;1.67;;;1.57;;
1376;SDS011;682;52.502;13.488;2023-10-31T08:29:08;2.03;;;1.93;;
1376;SDS011;682;52.502;13.488;2023-10-31T08:31:35;1.80;;;1.70;;
1376;SDS011;682;52.502;13.488;2023-10-31T08:34:02;1.87;;;1.70;;
1376;SDS011;682;52.502;13.488;2023-10-31T08:36:29;2.03;;;1.47;;
1376;SDS011;682;52.502;13.488;2023-10-31T08:38:56;1.27;;;1.17;;
1376;SDS011;682;52.502;13.488;2023-10-31T08:41:24;2.97;;;1.40;;
1376;SDS011;682;52.502;13.488;2023-10-31T08:43:51;1.63;;;1.40;;
1376;SDS011;682;52.502;13.488;2023-10-31T08:46:19;2.10;;;1.50;;
1376;SDS011;682;52.502;13.488;2023-10-31T08:48:46;1.70;;;1.40;;
1376;SDS011;682;52.502;13.488;2023-10-31T08:51:13;3.83;;;1.90;;
1376;SDS011;682;52.502;13.488;2023-10-31T08:53:40;1.50;;;1.40;;
1376;SDS011;682;52.502;13.488;2023-10-31T08:56:07;1.70;;;1.50;;
1376;SDS011;682;52.502;13.488;2023-10-31T08:58:36;1.33;;;1.20;;
1376;SDS011;682;52.502;13.488;2023-10-31T09:01:03;1.37;;;1.27;;
1376;SDS011;682;52.502;13.488;2023-10-31T09:03:30;1.37;;;1.27;;
1376;SDS011;682;52.502;13.488;2023-10-31T09:05:59;1.30;;;1.20;;
1376;SDS011;682;52.502;13.488;2023-10-31T09:08:26;1.20;;;1.10;;
1376;SDS011;682;52.502;13.488;2023-10-31T09:10:54;1.37;;;1.00;;
1376;SDS011;682;52.502;13.488;2023-10-31T09:13:21;1.90;;;1.20;;
1376;SDS011;682;52.502;13.488;2023-10-31T09:15:49;1.20;;;1.10;;
1376;SDS011;682;52.502;13.488;2023-10-31T09:18:16;1.43;;;0.90;;
1376;SDS011;682;52.502;13.488;2023-10-31T09:20:43;1.63;;;0.80;;
1376;SDS011;682;52.502;13.488;2023-10-31T09:23:12;1.30;;;1.10;;
1376;SDS011;682;52.502;13.488;2023-10-31T09:25:40;1.03;;;0.80;;
1376;SDS011;682;52.502;13.488;2023-10-31T09:28:06;1.13;;;1.03;;
1376;SDS011;682;52.502;13.488;2023-10-31T09:30:33;1.07;;;0.70;;
1376;SDS011;682;52.502;13.488;2023-10-31T09:33:02;0.90;;;0.70;;
1376;SDS011;682;52.502;13.488;2023-10-31T09:35:29;1.60;;;0.77;;
1376;SDS011;682;52.502;13.488;2023-10-31T09:37:56;0.83;;;0.80;;
1376;SDS011;682;52.502;13.488;2023-10-31T09:40:23;1.50;;;0.97;;
1376;SDS011;682;52.502;13.488;2023-10-31T09:42:50;1.60;;;1.10;;
1376;SDS011;682;52.502;13.488;2023-10-31T09:45:17;1.03;;;1.00;;
1376;SDS011;682;52.502;13.488;2023-10-31T09:47:44;1.20;;;1.10;;
1376;SDS011;682;52.502;13.488;2023-10-31T09:50:13;2.10;;;1.27;;
1376;SDS011;682;52.502;13.488;2023-10-31T09:52:40;3.10;;;1.30;;
1376;SDS011;682;52.502;13.488;2023-10-31T09:55:07;2.80;;;1.67;;
1376;SDS011;682;52.502;13.488;2023-10-31T09:57:35;1.60;;;1.50;;
1376;SDS011;682;52.502;13.488;2023-10-31T10:00:02;2.70;;;1.47;;
1376;SDS011;682;52.502;13.488;2023-10-31T10:02:30;2.20;;;1.30;;
1376;SDS011;682;52.502;13.488;2023-10-31T10:04:56;1.80;;;1.40;;
1376;SDS011;682;52.502;13.488;2023-10-31T10:07:26;1.47;;;1.37;;
1376;SDS011;682;52.502;13.488;2023-10-31T10:09:53;2.63;;;1.50;;
1376;SDS011;682;52.502;13.488;2023-10-31T10:12:24;1.40;;;1.13;;
1376;SDS011;682;52.502;13.488;2023-10-31T10:14:50;1.57;;;1.43;;
1376;SDS011;682;52.502;13.488;2023-10-31T10:17:20;1.27;;;1.10;;
1376;SDS011;682;52.502;13.488;2023-10-31T10:19:48;1.40;;;1.20;;
1376;SDS011;682;52.502;13.488;2023-10-31T10:22:31;2.03;;;1.50;;
1376;SDS011;682;52.502;13.488;2023-10-31T10:24:58;2.07;;;1.17;;
1376;SDS011;682;52.502;13.488;2023-10-31T10:27:25;2.27;;;1.67;;
1376;SDS011;682;52.502;13.488;2023-10-31T10:29:52;2.30;;;1.50;;
1376;SDS011;682;52.502;13.488;2023-10-31T10:32:19;1.63;;;1.23;;
1376;SDS011;682;52.502;13.488;2023-10-31T10:34:46;1.50;;;1.40;;
1376;SDS011;682;52.502;13.488;2023-10-31T10:37:13;1.53;;;1.37;;
1376;SDS011;682;52.502;13.488;2023-10-31T10:39:41;1.57;;;1.47;;
1376;SDS011;682;52.502;13.488;2023-10-31T10:42:14;1.90;;;1.80;;
1376;SDS011;682;52.502;13.488;2023-10-31T10:44:45;1.33;;;1.23;;
1376;SDS011;682;52.502;13.488;2023-10-31T10:47:13;1.90;;;1.43;;
1376;SDS011;682;52.502;13.488;2023-10-31T10:49:42;1.87;;;1.67;;
1376;SDS011;682;52.502;13.488;2023-10-31T10:52:13;1.93;;;1.53;;
1376;SDS011;682;52.502;13.488;2023-10-31T10:54:52;2.00;;;1.80;;
1376;SDS011;682;52.502;13.488;2023-10-31T10:57:24;1.53;;;1.43;;
1376;SDS011;682;52.502;13.488;2023-10-31T11:00:01;2.20;;;1.80;;
1376;SDS011;682;52.502;13.488;2023-10-31T11:02:29;1.80;;;1.70;;
1376;SDS011;682;52.502;13.488;2023-10-31T11:04:56;2.03;;;1.93;;
1376;SDS011;682;52.502;13.488;2023-10-31T11:07:25;2.80;;;1.80;;
1376;SDS011;682;52.502;13.488;2023-10-31T11:09:55;1.80;;;1.70;;
1376;SDS011;682;52.502;13.488;2023-10-31T11:12:23;2.70;;;1.97;;
1376;SDS011;682;52.502;13.488;2023-10-31T11:14:51;2.30;;;2.10;;
1376;SDS011;682;52.502;13.488;2023-10-31T11:17:22;2.50;;;2.30;;
1376;SDS011;682;52.502;13.488;2023-10-31T11:19:52;3.07;;;2.47;;
1376;SDS011;682;52.502;13.488;2023-10-31T11:22:21;1.93;;;1.83;;
1376;SDS011;682;52.502;13.488;2023-10-31T11:24:48;2.30;;;2.00;;
1376;SDS011;682;52.502;13.488;2023-10-31T11:27:17;2.33;;;2.13;;
1376;SDS011;682;52.502;13.488;2023-10-31T11:29:44;2.20;;;2.00;;
1376;SDS011;682;52.502;13.488;2023-10-31T11:32:11;4.47;;;2.50;;
1376;SDS011;682;52.502;13.488;2023-10-31T11:34:41;4.70;;;2.03;;
1376;SDS011;682;52.502;13.488;2023-10-31T11:37:23;2.87;;;2.30;;
1376;SDS011;682;52.502;13.488;2023-10-31T11:42:49;2.57;;;2.37;;
1376;SDS011;682;52.502;13.488;2023-10-31T11:45:25;2.37;;;2.17;;
1376;SDS011;682;52.502;13.488;2023-10-31T11:47:53;2.50;;;2.10;;
1376;SDS011;682;52.502;13.488;2023-10-31T11:50:21;5.03;;;1.90;;
1376;SDS011;682;52.502;13.488;2023-10-31T11:52:58;2.20;;;1.80;;
1376;SDS011;682;52.502;13.488;2023-10-31T11:55:26;3.23;;;2.20;;
1376;SDS011;682;52.502;13.488;2023-10-31T11:57:55;3.00;;;1.97;;
1376;SDS011;682;52.502;13.488;2023-10-31T12:00:22;1.70;;;1.60;;
1376;SDS011;682;52.502;13.488;2023-10-31T12:02:59;3.80;;;1.80;;
1376;SDS011;682;52.502;13.488;2023-10-31T12:05:26;2.43;;;1.80;;
1376;SDS011;682;52.502;13.488;2023-10-31T12:07:53;2.40;;;2.20;;
1376;SDS011;682;52.502;13.488;2023-10-31T12:10:23;1.40;;;1.30;;
1376;SDS011;682;52.502;13.488;2023-10-31T12:12:50;2.00;;;1.90;;
1376;SDS011;682;52.502;13.488;2023-10-31T12:15:19;1.70;;;1.60;;
1376;SDS011;682;52.502;13.488;2023-10-31T12:17:46;2.57;;;1.40;;
1376;SDS011;682;52.502;13.488;2023-10-31T12:20:14;3.10;;;1.60;;
1376;SDS011;682;52.502;13.488;2023-10-31T12:22:42;2.90;;;2.70;;
1376;SDS011;682;52.502;13.488;2023-10-31T12:25:10;1.00;;;0.90;;
1376;SDS011;682;52.502;13.488;2023-10-31T12:27:44;1.10;;;1.00;;
1376;SDS011;682;52.502;13.488;2023-10-31T12:30:12;12.80;;;2.40;;
1376;SDS011;682;52.502;13.488;2023-10-31T12:32:42;3.73;;;1.10;;
1376;SDS011;682;52.502;13.488;2023-10-31T12:35:10;2.37;;;2.00;;
1376;SDS011;682;52.502;13.488;2023-10-31T12:37:43;9.37;;;2.13;;
1376;SDS011;682;52.502;13.488;2023-10-31T12:40:12;1.50;;;1.40;;
1376;SDS011;682;52.502;13.488;2023-10-31T12:42:42;3.83;;;1.90;;
1376;SDS011;682;52.502;13.488;2023-10-31T12:45:09;3.40;;;1.23;;
1376;SDS011;682;52.502;13.488;2023-10-31T12:47:37;2.10;;;1.20;;
1376;SDS011;682;52.502;13.488;2023-10-31T12:50:11;1.27;;;1.17;;
1376;SDS011;682;52.502;13.488;2023-10-31T12:52:45;1.03;;;0.90;;
1376;SDS011;682;52.502;13.488;2023-10-31T12:55:13;1.80;;;0.97;;
1376;SDS011;682;52.502;13.488;2023-10-31T12:57:41;1.87;;;1.10;;
1376;SDS011;682;52.502;13.488;2023-10-31T13:00:09;1.73;;;1.10;;
1376;SDS011;682;52.502;13.488;2023-10-31T13:02:38;2.07;;;1.07;;
1376;SDS011;682;52.502;13.488;2023-10-31T13:05:11;1.30;;;1.00;;
1376;SDS011;682;52.502;13.488;2023-10-31T13:07:39;1.40;;;1.30;;
1376;SDS011;682;52.502;13.488;2023-10-31T13:10:08;1.33;;;1.00;;
1376;SDS011;682;52.502;13.488;2023-10-31T13:12:35;1.30;;;1.10;;
1376;SDS011;682;52.502;13.488;2023-10-31T13:15:03;2.20;;;1.47;;
1376;SDS011;682;52.502;13.488;2023-10-31T13:17:31;2.03;;;1.13;;
1376;SDS011;682;52.502;13.488;2023-10-31T13:19:58;1.23;;;1.10;;
1376;SDS011;682;52.502;13.488;2023-10-31T13:22:26;1.43;;;1.07;;
1376;SDS011;682;52.502;13.488;2023-10-31T13:24:53;1.80;;;1.20;;
1376;SDS011;682;52.502;13.488;2023-10-31T13:27:20;1.77;;;1.67;;
1376;SDS011;682;52.502;13.488;2023-10-31T13:29:47;1.20;;;1.10;;
1376;SDS011;682;52.502;13.488;2023-10-31T13:32:15;0.93;;;0.83;;
1376;SDS011;682;52.502;13.488;2023-10-31T13:34:42;1.00;;;0.90;;
1376;SDS011;682;52.502;13.488;2023-10-31T13:37:09;2.40;;;1.33;;
1376;SDS011;682;52.502;13.488;2023-10-31T13:39:38;1.83;;;0.80;;
1376;SDS011;682;52.502;13.488;2023-10-31T13:42:05;0.93;;;0.80;;
1376;SDS011;682;52.502;13.488;2023-10-31T13:44:32;1.77;;;1.10;;
1376;SDS011;682;52.502;13.488;2023-10-31T13:46:59;1.20;;;0.80;;
1376;SDS011;682;52.502;13.488;2023-10-31T13:49:26;1.07;;;0.97;;
1376;SDS011;682;52.502;13.488;2023-10-31T13:51:53;2.60;;;0.80;;
1376;SDS011;682;52.502;13.488;2023-10-31T13:54:20;1.50;;;0.90;;
1376;SDS011;682;52.502;13.488;2023-10-31T13:56:49;2.73;;;1.27;;
1376;SDS011;682;52.502;13.488;2023-10-31T13:59:15;3.90;;;0.80;;
1376;SDS011;682;52.502;13.488;2023-10-31T14:01:43;2.07;;;1.07;;
1376;SDS011;682;52.502;13.488;2023-10-31T14:04:12;1.43;;;0.70;;
1376;SDS011;682;52.502;13.488;2023-10-31T14:06:39;1.07;;;0.90;;
1376;SDS011;682;52.502;13.488;2023-10-31T14:09:08;1.17;;;0.90;;
1376;SDS011;682;52.502;13.488;2023-10-31T14:11:37;1.77;;;1.20;;
1376;SDS011;682;52.502;13.488;2023-10-31T14:14:06;3.17;;;0.90;;
1376;SDS011;682;52.502;13.488;2023-10-31T14:16:35;1.43;;;1.13;;
1376;SDS011;682;52.502;13.488;2023-10-31T14:19:02;2.50;;;1.00;;
1376;SDS011;682;52.502;13.488;2023-10-31T14:21:29;1.00;;;0.90;;
1376;SDS011;682;52.502;13.488;2023-10-31T14:23:57;2.03;;;1.70;;
1376;SDS011;682;52.502;13.488;2023-10-31T14:26:24;0.70;;;0.53;;
1376;SDS011;682;52.502;13.488;2023-10-31T14:28:52;1.17;;;1.07;;
1376;SDS011;682;52.502;13.488;2023-10-31T14:31:21;1.50;;;0.80;;
1376;SDS011;682;52.502;13.488;2023-10-31T14:33:48;2.33;;;1.20;;
1376;SDS011;682;52.502;13.488;2023-10-31T14:36:15;1.57;;;1.40;;
1376;SDS011;682;52.502;13.488;2023-10-31T14:38:42;1.50;;;1.20;;
1376;SDS011;682;52.502;13.488;2023-10-31T14:41:10;1.90;;;1.40;;
1376;SDS011;682;52.502;13.488;2023-10-31T14:43:39;2.60;;;1.70;;
1376;SDS011;682;52.502;13.488;2023-10-31T14:46:06;2.87;;;2.10;;
1376;SDS011;682;52.502;13.488;2023-10-31T14:48:35;2.33;;;2.00;;
1376;SDS011;682;52.502;13.488;2023-10-31T14:51:02;2.27;;;1.57;;
1376;SDS011;682;52.502;13.488;2023-10-31T14:53:29;5.00;;;2.80;;
1376;SDS011;682;52.502;13.488;2023-10-31T14:55:56;1.90;;;1.67;;
1376;SDS011;682;52.502;13.488;2023-10-31T14:58:23;1.80;;;1.70;;
1376;SDS011;682;52.502;13.488;2023-10-31T15:00:50;2.80;;;1.80;;
1376;SDS011;682;52.502;13.488;2023-10-31T15:03:17;2.23;;;1.53;;
1376;SDS011;682;52.502;13.488;2023-10-31T15:05:45;2.10;;;1.43;;
1376;SDS011;682;52.502;13.488;2023-10-31T15:08:12;3.40;;;2.27;;
1376;SDS011;682;52.502;13.488;2023-10-31T15:10:39;2.23;;;1.53;;
1376;SDS011;682;52.502;13.488;2023-10-31T15:13:06;2.23;;;1.50;;
1376;SDS011;682;52.502;13.488;2023-10-31T15:15:33;1.67;;;1.30;;